createdAt,value
2019-03-09T00:00:43.020Z,7.90
2019-03-09T00:03:15.272Z,7.90
2019-03-09T00:05:45.887Z,7.90
2019-03-09T00:08:16.565Z,7.90
2019-03-09T00:10:48.287Z,7.80
2019-03-09T00:13:18.939Z,7.80
2019-03-09T00:15:49.921Z,7.80
2019-03-09T00:18:20.831Z,7.70
2019-03-09T00:20:51.573Z,7.70
2019-03-09T00:23:41.055Z,7.70
2019-03-09T00:26:35.068Z,7.70
2019-03-09T00:29:14.515Z,7.70
2019-03-09T00:31:53.252Z,7.70
2019-03-09T00:34:24.807Z,7.60
2019-03-09T00:36:55.768Z,7.70
2019-03-09T00:39:26.807Z,7.60
2019-03-09T00:41:57.732Z,7.60
2019-03-09T00:44:28.388Z,7.60
2019-03-09T00:46:59.225Z,7.60
2019-03-09T00:49:30.955Z,7.60
2019-03-09T00:52:02.092Z,7.60
2019-03-09T00:54:34.456Z,7.60
2019-03-09T00:57:05.212Z,7.50
2019-03-09T00:59:36.192Z,7.60
2019-03-09T01:02:07.268Z,7.60
2019-03-09T01:04:38.233Z,7.50
2019-03-09T01:07:08.988Z,7.50
2019-03-09T01:09:39.864Z,7.50
2019-03-09T01:12:10.501Z,7.50
2019-03-09T01:14:41.948Z,7.50
2019-03-09T01:17:12.505Z,7.50
2019-03-09T01:19:43.212Z,7.50
2019-03-09T01:22:13.906Z,7.50
2019-03-09T01:24:44.436Z,7.50
2019-03-09T01:27:17.616Z,7.50
2019-03-09T01:29:51.432Z,7.50
2019-03-09T01:32:22.828Z,7.50
2019-03-09T01:34:53.467Z,7.50
2019-03-09T01:37:24.698Z,7.60
2019-03-09T01:39:55.832Z,7.60
2019-03-09T01:42:26.684Z,7.60
2019-03-09T01:44:57.377Z,7.60
2019-03-09T01:47:29.016Z,7.50
2019-03-09T01:49:59.592Z,7.50
2019-03-09T01:52:30.665Z,7.60
2019-03-09T01:55:03.369Z,7.60
2019-03-09T01:57:34.504Z,7.60
2019-03-09T02:00:06.352Z,7.60
2019-03-09T02:02:38.928Z,7.60
2019-03-09T02:05:10.459Z,7.60
2019-03-09T02:07:42.215Z,7.60
2019-03-09T02:10:14.011Z,7.60
2019-03-09T02:12:44.851Z,7.60
2019-03-09T02:15:17.220Z,7.60
2019-03-09T02:17:47.715Z,7.60
2019-03-09T02:20:19.186Z,7.60
2019-03-09T02:22:49.816Z,7.60
2019-03-09T02:25:21.085Z,7.60
2019-03-09T02:27:52.097Z,7.70
2019-03-09T02:30:25.277Z,7.70
2019-03-09T02:32:55.953Z,7.70
2019-03-09T02:35:37.897Z,7.70
2019-03-09T02:38:32.044Z,7.80
2019-03-09T02:41:04.964Z,7.80
2019-03-09T02:43:40.408Z,7.70
2019-03-09T02:46:12.353Z,7.80
2019-03-09T02:48:45.105Z,7.80
2019-03-09T02:51:15.812Z,7.80
2019-03-09T02:53:46.983Z,7.80
2019-03-09T02:56:18.396Z,7.80
2019-03-09T02:58:49.045Z,7.80
2019-03-09T03:01:37.616Z,7.80
2019-03-09T03:04:16.580Z,7.90
2019-03-09T03:06:47.247Z,7.80
2019-03-09T03:09:29.981Z,7.80
2019-03-09T03:12:01.200Z,7.80
2019-03-09T03:14:37.939Z,7.90
2019-03-09T03:17:08.795Z,7.90
2019-03-09T03:19:40.752Z,7.90
2019-03-09T03:22:12.965Z,7.90
2019-03-09T03:24:43.885Z,8.00
2019-03-09T03:27:14.800Z,8.00
2019-03-09T03:29:45.661Z,8.00
2019-03-09T03:32:16.305Z,8.00
2019-03-09T03:34:46.957Z,8.00
2019-03-09T03:37:17.541Z,8.00
2019-03-09T03:39:48.197Z,8.00
2019-03-09T03:42:18.981Z,8.00
2019-03-09T03:44:49.865Z,8.00
2019-03-09T03:47:20.486Z,8.00
2019-03-09T03:49:51.715Z,8.10
2019-03-09T03:52:22.547Z,8.10
2019-03-09T03:54:53.804Z,8.00
2019-03-09T03:57:25.077Z,8.00
2019-03-09T03:59:56.576Z,8.00
2019-03-09T04:02:28.076Z,8.10
2019-03-09T04:04:59.019Z,8.10
2019-03-09T04:07:29.777Z,8.10
2019-03-09T04:10:00.532Z,8.20
2019-03-09T04:12:33.427Z,8.20
2019-03-09T04:15:04.122Z,8.20
2019-03-09T04:17:35.481Z,8.20
2019-03-09T04:20:06.704Z,8.20
2019-03-09T04:22:38.209Z,8.20
2019-03-09T04:25:09.458Z,8.20
2019-03-09T04:27:43.301Z,8.20
2019-03-09T04:31:15.269Z,8.20
2019-03-09T04:34:09.080Z,8.30
2019-03-09T04:39:51.353Z,8.20
2019-03-09T04:42:22.707Z,8.20
2019-03-09T04:44:53.887Z,8.20
2019-03-09T04:47:24.528Z,8.20
2019-03-09T04:49:55.248Z,8.20
2019-03-09T04:52:31.920Z,8.20
2019-03-09T04:55:07.018Z,8.10
2019-03-09T04:57:42.160Z,8.10
2019-03-09T05:00:27.916Z,8.00
2019-03-09T05:03:04.796Z,8.00
2019-03-09T05:05:35.740Z,7.90
2019-03-09T05:08:32.820Z,7.90
2019-03-09T05:11:13.420Z,8.00
2019-03-09T05:14:13.488Z,7.90
2019-03-09T05:16:44.876Z,8.00
2019-03-09T05:19:15.896Z,8.00
2019-03-09T05:21:46.748Z,8.10
2019-03-09T05:24:18.075Z,8.10
2019-03-09T05:26:49.197Z,8.00
2019-03-09T05:29:19.940Z,7.90
2019-03-09T05:31:50.760Z,7.90
2019-03-09T05:34:21.201Z,7.90
2019-03-09T05:36:52.446Z,7.80
2019-03-09T05:39:23.057Z,7.70
2019-03-09T05:41:53.735Z,7.70
2019-03-09T05:44:24.697Z,7.60
2019-03-09T05:46:56.978Z,7.60
2019-03-09T05:49:27.581Z,7.60
2019-03-09T05:52:29.374Z,7.60
2019-03-09T05:55:06.501Z,7.60
2019-03-09T05:57:38.005Z,7.60
2019-03-09T06:00:09.788Z,7.50
2019-03-09T06:02:41.865Z,7.50
2019-03-09T06:06:00.721Z,7.50
2019-03-09T06:08:31.288Z,7.60
2019-03-09T06:11:03.167Z,7.70
2019-03-09T06:13:34.605Z,7.70
2019-03-09T06:16:05.264Z,7.80
2019-03-09T06:18:36.000Z,7.80
2019-03-09T06:21:07.072Z,7.90
2019-03-09T06:23:37.813Z,7.90
2019-03-09T06:26:09.272Z,8.00
2019-03-09T06:28:39.896Z,8.00
2019-03-09T06:31:10.652Z,8.10
2019-03-09T06:33:43.001Z,8.10
2019-03-09T06:37:09.073Z,8.10
2019-03-09T06:39:42.269Z,8.20
2019-03-09T06:42:47.145Z,8.20
2019-03-09T06:45:18.838Z,8.20
2019-03-09T06:47:49.968Z,8.30
2019-03-09T06:50:21.556Z,8.30
2019-03-09T06:52:53.041Z,8.40
2019-03-09T06:55:24.148Z,8.40
2019-03-09T06:57:55.385Z,8.40
2019-03-09T07:00:33.921Z,8.40
2019-03-09T07:03:06.536Z,8.40
2019-03-09T07:05:37.397Z,8.40
2019-03-09T07:08:07.892Z,8.50
2019-03-09T07:10:38.817Z,8.50
2019-03-09T07:13:09.481Z,8.60
2019-03-09T07:15:42.349Z,8.50
2019-03-09T07:18:15.436Z,8.50
2019-03-09T07:20:46.654Z,8.60
2019-03-09T07:23:17.396Z,8.60
2019-03-09T07:25:48.425Z,8.70
2019-03-09T07:28:19.280Z,8.70
2019-03-09T07:30:50.616Z,8.70
2019-03-09T07:33:21.172Z,8.70
2019-03-09T07:35:52.004Z,8.70
2019-03-09T07:38:22.805Z,8.70
2019-03-09T07:40:53.541Z,8.80
2019-03-09T07:43:24.628Z,8.70
2019-03-09T07:45:55.340Z,8.80
2019-03-09T07:48:27.898Z,8.80
2019-03-09T07:51:02.388Z,8.90
2019-03-09T07:53:33.057Z,8.90
2019-03-09T07:56:04.461Z,8.90
2019-03-09T07:58:35.329Z,8.90
2019-03-09T08:01:06.101Z,9.00
2019-03-09T08:03:37.109Z,9.00
2019-03-09T08:06:07.821Z,9.10
2019-03-09T08:08:38.986Z,9.10
2019-03-09T08:11:10.193Z,9.20
2019-03-09T08:13:40.889Z,9.20
2019-03-09T08:16:11.689Z,9.20
2019-03-09T08:18:42.516Z,9.30
2019-03-09T08:21:13.120Z,9.30
2019-03-09T08:23:43.934Z,9.30
2019-03-09T08:26:14.649Z,9.30
2019-03-09T08:28:45.375Z,9.30
2019-03-09T08:31:16.356Z,9.40
2019-03-09T08:33:47.306Z,9.40
2019-03-09T08:36:18.022Z,9.40
2019-03-09T08:38:48.712Z,9.50
2019-03-09T08:41:21.776Z,9.60
2019-03-09T08:43:54.503Z,9.70
2019-03-09T08:46:25.255Z,9.70
2019-03-09T08:48:56.611Z,9.80
2019-03-09T08:51:27.395Z,9.90
2019-03-09T08:53:58.264Z,9.90
2019-03-09T08:56:30.213Z,10.00
2019-03-09T08:59:01.099Z,10.10
2019-03-09T09:01:31.911Z,10.10
2019-03-09T09:04:02.724Z,10.10
2019-03-09T09:06:33.461Z,10.20
2019-03-09T09:09:05.945Z,10.20
2019-03-09T09:11:38.101Z,10.20
2019-03-09T09:14:13.590Z,10.20
2019-03-09T09:16:44.396Z,10.20
2019-03-09T09:19:14.999Z,10.30
2019-03-09T09:21:45.687Z,10.20
2019-03-09T09:24:16.439Z,10.20
2019-03-09T09:26:47.032Z,10.20
2019-03-09T09:29:17.778Z,10.20
2019-03-09T09:31:48.596Z,10.20
2019-03-09T09:34:19.288Z,10.20
2019-03-09T09:36:50.035Z,10.20
2019-03-09T09:39:20.747Z,10.20
2019-03-09T09:41:51.491Z,10.20
2019-03-09T09:44:22.299Z,10.10
2019-03-09T09:47:00.864Z,10.10
2019-03-09T09:49:31.604Z,10.20
2019-03-09T09:52:04.468Z,10.20
2019-03-09T09:54:35.928Z,10.20
2019-03-09T09:57:06.558Z,10.30
2019-03-09T09:59:37.170Z,10.30
2019-03-09T10:02:07.829Z,10.50
2019-03-09T10:04:38.497Z,10.60
2019-03-09T10:07:10.858Z,10.60
2019-03-09T10:09:48.629Z,10.70
2019-03-09T10:12:22.627Z,10.70
2019-03-09T10:15:00.245Z,10.70
2019-03-09T10:17:43.661Z,10.70
2019-03-09T10:20:23.647Z,10.70
2019-03-09T10:23:04.189Z,10.70
2019-03-09T10:25:38.364Z,10.70
2019-03-09T10:28:11.886Z,10.70
2019-03-09T10:30:42.973Z,10.60
2019-03-09T10:33:17.809Z,10.70
2019-03-09T10:35:52.053Z,10.80
2019-03-09T10:38:59.181Z,10.90
2019-03-09T10:41:36.455Z,10.90
2019-03-09T10:44:06.267Z,10.90
2019-03-09T10:46:37.244Z,10.90
2019-03-09T10:49:08.165Z,10.90
2019-03-09T10:51:41.312Z,11.00
2019-03-09T10:54:12.300Z,11.00
2019-03-09T10:56:43.393Z,11.00
2019-03-09T10:59:18.596Z,10.90
2019-03-09T11:01:52.677Z,10.90
2019-03-09T11:04:27.915Z,10.90
2019-03-09T11:06:59.859Z,10.90
2019-03-09T11:09:33.404Z,10.90
2019-03-09T11:12:05.172Z,11.00
2019-03-09T11:14:38.663Z,11.10
2019-03-09T11:17:10.682Z,11.30
2019-03-09T11:19:41.516Z,11.40
2019-03-09T11:22:12.316Z,11.40
2019-03-09T11:24:43.002Z,11.50
2019-03-09T11:27:18.964Z,11.50
2019-03-09T11:29:49.686Z,11.40
2019-03-09T11:32:20.419Z,11.50
2019-03-09T11:34:51.245Z,11.40
2019-03-09T11:37:21.919Z,11.50
2019-03-09T11:39:55.374Z,11.50
2019-03-09T11:42:25.998Z,11.60
2019-03-09T11:44:56.688Z,11.70
2019-03-09T11:47:27.371Z,11.80
2019-03-09T11:49:57.958Z,11.90
2019-03-09T11:52:29.294Z,11.90
2019-03-09T11:55:00.174Z,11.80
2019-03-09T11:57:31.008Z,11.90
2019-03-09T12:00:01.608Z,12.00
2019-03-09T12:02:38.871Z,12.10
2019-03-09T12:05:05.291Z,12.20
2019-03-09T12:07:35.858Z,12.20
2019-03-09T12:10:07.254Z,12.30
2019-03-09T12:12:39.010Z,12.40
2019-03-09T12:15:10.290Z,12.50
2019-03-09T12:17:41.047Z,12.30
2019-03-09T12:20:12.141Z,12.30
2019-03-09T12:22:42.869Z,12.10
2019-03-09T12:25:14.068Z,12.00
2019-03-09T12:27:46.015Z,11.90
2019-03-09T12:30:17.117Z,11.90
2019-03-09T12:32:47.949Z,11.90
2019-03-09T12:35:20.655Z,12.00
2019-03-09T12:37:51.362Z,12.00
2019-03-09T12:40:22.039Z,12.00
2019-03-09T12:42:52.785Z,11.90
2019-03-09T12:45:23.605Z,12.00
2019-03-09T12:47:54.306Z,12.00
2019-03-09T12:50:41.663Z,12.10
2019-03-09T12:53:21.602Z,12.20
2019-03-09T12:56:01.332Z,12.30
2019-03-09T12:58:46.600Z,12.40
2019-03-09T13:01:35.493Z,12.30
2019-03-09T13:04:15.712Z,12.00
2019-03-09T13:07:19.920Z,11.70
2019-03-09T13:09:50.762Z,11.20
2019-03-09T13:12:26.618Z,11.00
2019-03-09T13:15:04.555Z,10.70
2019-03-09T13:17:40.786Z,10.60
2019-03-09T13:20:22.773Z,10.70
2019-03-09T13:22:53.114Z,10.70
2019-03-09T13:25:23.463Z,10.90
2019-03-09T13:27:53.718Z,10.80
2019-03-09T13:30:24.154Z,10.90
2019-03-09T13:32:54.527Z,11.00
2019-03-09T13:35:24.795Z,11.00
2019-03-09T13:37:55.180Z,10.90
2019-03-09T13:40:25.524Z,10.90
2019-03-09T13:42:55.801Z,10.70
2019-03-09T13:45:26.355Z,10.60
2019-03-09T13:47:56.627Z,10.30
2019-03-09T13:50:26.991Z,10.00
2019-03-09T13:52:57.501Z,9.90
2019-03-09T13:55:27.860Z,9.80
2019-03-09T13:57:58.289Z,9.70
2019-03-09T14:00:28.580Z,9.90
2019-03-09T14:02:58.908Z,10.10
2019-03-09T14:05:29.184Z,10.20
2019-03-09T14:07:59.557Z,10.30
2019-03-09T14:10:29.918Z,10.10
2019-03-09T14:13:00.371Z,10.00
2019-03-09T14:15:31.173Z,10.00
2019-03-09T14:18:03.633Z,10.10
2019-03-09T14:20:34.988Z,10.20
2019-03-09T14:23:05.329Z,10.30
2019-03-09T14:25:35.693Z,10.40
2019-03-09T14:28:06.061Z,10.50
2019-03-09T14:30:36.390Z,10.50
2019-03-09T14:33:06.712Z,10.60
2019-03-09T14:35:37.007Z,10.50
2019-03-09T14:38:07.365Z,10.50
2019-03-09T14:40:37.696Z,10.40
2019-03-09T14:43:07.975Z,10.30
2019-03-09T14:45:38.323Z,10.30
2019-03-09T14:48:08.602Z,10.20
2019-03-09T14:50:39.025Z,10.30
2019-03-09T14:53:09.378Z,10.50
2019-03-09T14:55:39.735Z,10.50
2019-03-09T14:58:10.023Z,10.50
2019-03-09T15:00:40.365Z,10.40
2019-03-09T15:03:10.720Z,10.30
2019-03-09T15:05:41.115Z,10.20
2019-03-09T15:08:11.538Z,10.20
2019-03-09T15:10:41.884Z,10.10
2019-03-09T15:13:12.264Z,10.10
2019-03-09T15:15:46.451Z,10.10
2019-03-09T15:18:16.867Z,10.00
2019-03-09T15:20:47.127Z,10.00
2019-03-09T15:23:17.478Z,10.00
2019-03-09T15:25:47.758Z,10.10
2019-03-09T15:28:18.054Z,10.00
2019-03-09T15:30:48.400Z,10.00
2019-03-09T15:33:21.513Z,10.00
2019-03-09T15:35:50.990Z,10.00
2019-03-09T15:38:21.406Z,10.00
2019-03-09T15:40:51.837Z,10.10
2019-03-09T15:43:22.174Z,10.10
2019-03-09T15:45:52.629Z,10.20
2019-03-09T15:48:22.892Z,10.30
2019-03-09T15:50:53.243Z,10.40
2019-03-09T15:53:23.602Z,10.30
2019-03-09T15:55:53.929Z,9.40
2019-03-09T15:58:24.192Z,8.40
2019-03-09T16:00:54.605Z,7.80
2019-03-09T16:03:24.865Z,7.60
2019-03-09T16:05:55.280Z,7.50
2019-03-09T16:08:25.520Z,7.40
2019-03-09T16:10:55.873Z,7.40
2019-03-09T16:13:26.156Z,7.40
2019-03-09T16:15:56.432Z,7.40
2019-03-09T16:18:26.863Z,7.40
2019-03-09T16:20:57.331Z,7.50
2019-03-09T16:23:27.678Z,7.60
2019-03-09T16:25:58.038Z,7.60
2019-03-09T16:28:28.369Z,7.60
2019-03-09T16:30:58.693Z,7.60
2019-03-09T16:33:29.065Z,7.60
2019-03-09T16:35:59.318Z,7.70
2019-03-09T16:38:29.625Z,7.70
2019-03-09T16:41:00.045Z,7.80
2019-03-09T16:43:31.294Z,7.70
2019-03-09T16:46:02.026Z,7.80
2019-03-09T16:48:32.425Z,7.80
2019-03-09T16:51:04.538Z,7.80
2019-03-09T16:53:34.774Z,7.80
2019-03-09T16:56:05.110Z,7.80
2019-03-09T16:58:35.429Z,7.80
2019-03-09T17:01:05.777Z,7.80
2019-03-09T17:03:36.010Z,7.70
2019-03-09T17:06:17.754Z,7.70
2019-03-09T17:08:47.998Z,7.70
2019-03-09T17:11:18.283Z,7.70
2019-03-09T17:13:48.635Z,7.80
2019-03-09T17:16:18.902Z,7.80
2019-03-09T17:18:49.226Z,7.80
2019-03-09T17:21:19.501Z,7.80
2019-03-09T17:23:49.861Z,7.90
2019-03-09T17:26:20.229Z,7.90
2019-03-09T17:28:50.601Z,7.90
2019-03-09T17:31:20.945Z,7.70
2019-03-09T17:33:51.298Z,7.90
2019-03-09T17:36:21.569Z,7.90
2019-03-09T17:38:51.899Z,8.00
2019-03-09T17:41:23.869Z,8.00
2019-03-09T17:43:54.212Z,8.00
2019-03-09T17:46:24.498Z,8.00
2019-03-09T17:48:54.838Z,8.00
2019-03-09T17:51:25.088Z,7.90
2019-03-09T17:53:55.362Z,8.00
2019-03-09T17:56:25.602Z,8.00
2019-03-09T17:58:55.870Z,7.90
2019-03-09T18:01:26.198Z,7.90
2019-03-09T18:03:56.543Z,7.90
2019-03-09T18:06:26.836Z,7.90
2019-03-09T18:08:57.092Z,7.90
2019-03-09T18:11:27.431Z,7.90
2019-03-09T18:14:06.686Z,7.80
2019-03-09T18:16:29.735Z,7.80
2019-03-09T18:19:00.020Z,7.80
2019-03-09T18:21:30.368Z,7.80
2019-03-09T18:24:01.801Z,7.80
2019-03-09T18:26:32.057Z,7.80
2019-03-09T18:29:03.469Z,7.70
2019-03-09T18:31:33.997Z,7.70
2019-03-09T18:34:04.453Z,7.70
2019-03-09T18:36:34.809Z,7.70
2019-03-09T18:39:06.555Z,7.60
2019-03-09T18:41:37.085Z,7.60
2019-03-09T18:44:07.511Z,7.50
2019-03-09T18:46:37.888Z,7.50
2019-03-09T18:49:08.236Z,7.50
2019-03-09T18:51:38.596Z,7.40
2019-03-09T18:54:08.924Z,7.40
2019-03-09T18:56:39.204Z,7.40
2019-03-09T18:59:09.490Z,7.30
2019-03-09T19:01:39.740Z,7.30
2019-03-09T19:04:11.532Z,7.30
2019-03-09T19:06:41.903Z,7.30
2019-03-09T19:09:12.531Z,7.20
2019-03-09T19:11:42.869Z,7.20
2019-03-09T19:14:13.168Z,7.30
2019-03-09T19:16:43.419Z,7.30
2019-03-09T19:19:14.781Z,7.20
2019-03-09T19:21:45.260Z,7.30
2019-03-09T19:24:15.596Z,7.20
2019-03-09T19:26:45.893Z,7.30
2019-03-09T19:29:16.166Z,7.30
2019-03-09T19:31:46.485Z,7.20
2019-03-09T19:34:16.769Z,7.10
2019-03-09T19:36:47.033Z,7.10
2019-03-09T19:39:17.377Z,7.10
2019-03-09T19:41:47.642Z,7.10
2019-03-09T19:44:17.894Z,7.10
2019-03-09T19:46:48.243Z,7.10
2019-03-09T19:49:18.510Z,7.20
2019-03-09T19:51:50.911Z,7.20
2019-03-09T19:54:21.163Z,7.20
2019-03-09T19:56:51.423Z,7.20
2019-03-09T19:59:21.763Z,7.20
2019-03-09T20:01:52.041Z,7.20
2019-03-09T20:04:22.324Z,7.20
2019-03-09T20:06:52.628Z,7.30
2019-03-09T20:09:22.943Z,7.50
2019-03-09T20:11:53.271Z,7.50
2019-03-09T20:14:23.612Z,7.60
2019-03-09T20:16:53.851Z,7.60
2019-03-09T20:19:24.248Z,7.70
2019-03-09T20:21:54.831Z,7.70
2019-03-09T20:24:25.292Z,7.70
2019-03-09T20:26:55.912Z,7.80
2019-03-09T20:29:26.345Z,7.80
2019-03-09T20:31:56.685Z,7.80
2019-03-09T20:34:26.979Z,7.80
2019-03-09T20:36:57.292Z,7.80
2019-03-09T20:39:27.613Z,7.70
2019-03-09T20:41:57.889Z,7.80
2019-03-09T20:44:28.169Z,7.80
2019-03-09T20:46:58.453Z,7.70
2019-03-09T20:49:28.822Z,7.70
2019-03-09T20:51:59.334Z,7.60
2019-03-09T20:54:29.691Z,7.60
2019-03-09T20:57:00.007Z,7.40
2019-03-09T20:59:32.667Z,7.40
2019-03-09T21:02:03.910Z,7.30
2019-03-09T21:04:34.263Z,7.20
2019-03-09T21:07:04.702Z,7.20
2019-03-09T21:09:35.035Z,7.20
2019-03-09T21:12:05.481Z,7.10
2019-03-09T21:14:35.753Z,7.00
2019-03-09T21:17:06.074Z,7.00
2019-03-09T21:19:36.333Z,7.00
2019-03-09T21:22:06.591Z,7.10
2019-03-09T21:24:37.110Z,7.20
2019-03-09T21:27:07.461Z,7.30
2019-03-09T21:29:37.721Z,7.30
2019-03-09T21:32:07.990Z,7.30
2019-03-09T21:34:38.235Z,7.20
2019-03-09T21:37:08.490Z,7.10
2019-03-09T21:39:38.800Z,7.20
2019-03-09T21:42:09.069Z,7.20
2019-03-09T21:44:39.313Z,7.20
2019-03-09T21:47:09.672Z,7.20
2019-03-09T21:49:40.089Z,7.20
2019-03-09T21:52:10.352Z,7.20
2019-03-09T21:54:40.613Z,7.10
2019-03-09T21:57:10.924Z,7.10
2019-03-09T21:59:41.172Z,7.10
2019-03-09T22:02:11.593Z,7.10
2019-03-09T22:04:41.872Z,7.00
2019-03-09T22:07:13.144Z,7.10
2019-03-09T22:09:43.452Z,7.10
2019-03-09T22:12:13.712Z,7.00
2019-03-09T22:14:43.987Z,7.10
2019-03-09T22:17:14.251Z,7.10
2019-03-09T22:19:44.502Z,7.00
2019-03-09T22:22:14.827Z,6.90
2019-03-09T22:24:45.919Z,7.00
2019-03-09T22:27:16.244Z,7.00
2019-03-09T22:29:46.572Z,6.90
2019-03-09T22:32:16.832Z,6.90
2019-03-09T22:34:47.091Z,7.00
2019-03-09T22:37:17.429Z,7.00
2019-03-09T22:39:47.740Z,7.00
2019-03-09T22:42:18.089Z,7.00
2019-03-09T22:44:48.500Z,7.00
2019-03-09T22:47:18.755Z,7.10
2019-03-09T22:49:49.032Z,7.20
2019-03-09T22:52:19.292Z,7.20
2019-03-09T22:54:49.642Z,7.20
2019-03-09T22:57:19.908Z,7.20
2019-03-09T22:59:50.318Z,7.20
2019-03-09T23:02:20.621Z,7.20
2019-03-09T23:04:50.877Z,7.20
2019-03-09T23:07:21.206Z,7.20
2019-03-09T23:09:51.472Z,7.20
2019-03-09T23:12:21.780Z,7.10
2019-03-09T23:14:52.078Z,7.10
2019-03-09T23:17:22.444Z,7.10
2019-03-09T23:19:52.692Z,7.20
2019-03-09T23:22:22.996Z,7.20
2019-03-09T23:24:53.248Z,7.20
2019-03-09T23:27:23.588Z,7.20
2019-03-09T23:29:53.988Z,7.30
2019-03-09T23:32:24.408Z,7.30
2019-03-09T23:34:54.698Z,7.30
2019-03-09T23:37:25.060Z,7.30
2019-03-09T23:39:55.521Z,7.30
2019-03-09T23:42:25.821Z,7.30
2019-03-09T23:44:56.243Z,7.30
2019-03-09T23:47:26.668Z,7.30
2019-03-09T23:49:57.109Z,7.30
2019-03-09T23:52:27.509Z,7.20
2019-03-09T23:54:57.856Z,7.20
2019-03-09T23:57:28.541Z,7.20
2019-03-09T23:59:59.012Z,7.20
